sensor_id;sensor_type;location;lat;lon;timestamp;P1;durP1;ratioP1;P2;durP2;ratioP2
7939;SDS011;4015;48.888;9.226;2023-08-31T00:00:33;3.83;;;2.80;;
7939;SDS011;4015;48.888;9.226;2023-08-31T00:02:59;3.75;;;2.90;;
7939;SDS011;4015;48.888;9.226;2023-08-31T00:05:25;6.60;;;2.53;;
7939;SDS011;4015;48.888;9.226;2023-08-31T00:07:53;5.50;;;2.77;;
7939;SDS011;4015;48.888;9.226;2023-08-31T00:10:18;3.45;;;3.05;;
7939;SDS011;4015;48.888;9.226;2023-08-31T00:12:43;6.13;;;2.70;;
7939;SDS011;4015;48.888;9.226;2023-08-31T00:15:09;4.40;;;3.20;;
7939;SDS011;4015;48.888;9.226;2023-08-31T00:17:35;5.38;;;2.70;;
7939;SDS011;4015;48.888;9.226;2023-08-31T00:20:00;4.18;;;2.70;;
7939;SDS011;4015;48.888;9.226;2023-08-31T00:22:26;3.22;;;2.60;;
7939;SDS011;4015;48.888;9.226;2023-08-31T00:24:51;6.32;;;2.97;;
7939;SDS011;4015;48.888;9.226;2023-08-31T00:27:17;7.80;;;3.00;;
7939;SDS011;4015;48.888;9.226;2023-08-31T00:29:43;4.13;;;2.38;;
7939;SDS011;4015;48.888;9.226;2023-08-31T00:32:14;6.88;;;3.15;;
7939;SDS011;4015;48.888;9.226;2023-08-31T00:34:40;3.85;;;2.90;;
7939;SDS011;4015;48.888;9.226;2023-08-31T00:37:05;2.90;;;2.60;;
7939;SDS011;4015;48.888;9.226;2023-08-31T00:39:30;3.60;;;2.70;;
7939;SDS011;4015;48.888;9.226;2023-08-31T00:41:56;3.28;;;2.97;;
7939;SDS011;4015;48.888;9.226;2023-08-31T00:44:21;4.18;;;3.05;;
7939;SDS011;4015;48.888;9.226;2023-08-31T00:46:47;3.80;;;2.80;;
7939;SDS011;4015;48.888;9.226;2023-08-31T00:49:12;3.67;;;2.80;;
7939;SDS011;4015;48.888;9.226;2023-08-31T00:51:39;3.77;;;2.90;;
7939;SDS011;4015;48.888;9.226;2023-08-31T00:54:05;5.17;;;4.33;;
7939;SDS011;4015;48.888;9.226;2023-08-31T00:56:31;4.80;;;3.40;;
7939;SDS011;4015;48.888;9.226;2023-08-31T00:58:56;7.03;;;3.83;;
7939;SDS011;4015;48.888;9.226;2023-08-31T01:06:44;5.50;;;4.00;;
7939;SDS011;4015;48.888;9.226;2023-08-31T01:12:02;5.03;;;3.67;;
7939;SDS011;4015;48.888;9.226;2023-08-31T01:15:04;4.27;;;3.23;;
7939;SDS011;4015;48.888;9.226;2023-08-31T01:17:28;3.47;;;3.17;;
7939;SDS011;4015;48.888;9.226;2023-08-31T01:19:58;4.17;;;3.50;;
7939;SDS011;4015;48.888;9.226;2023-08-31T01:22:43;3.93;;;3.50;;
7939;SDS011;4015;48.888;9.226;2023-08-31T01:25:12;5.13;;;3.60;;
7939;SDS011;4015;48.888;9.226;2023-08-31T01:27:38;5.43;;;3.23;;
7939;SDS011;4015;48.888;9.226;2023-08-31T01:30:04;3.83;;;3.30;;
7939;SDS011;4015;48.888;9.226;2023-08-31T01:32:33;6.20;;;4.10;;
7939;SDS011;4015;48.888;9.226;2023-08-31T01:35:00;5.00;;;3.07;;
7939;SDS011;4015;48.888;9.226;2023-08-31T01:37:39;6.70;;;3.53;;
7939;SDS011;4015;48.888;9.226;2023-08-31T01:40:14;5.43;;;3.67;;
7939;SDS011;4015;48.888;9.226;2023-08-31T01:42:42;6.13;;;3.80;;
7939;SDS011;4015;48.888;9.226;2023-08-31T01:45:10;5.97;;;3.50;;
7939;SDS011;4015;48.888;9.226;2023-08-31T01:47:38;11.27;;;3.87;;
7939;SDS011;4015;48.888;9.226;2023-08-31T01:50:03;4.97;;;3.50;;
7939;SDS011;4015;48.888;9.226;2023-08-31T01:52:29;7.33;;;3.37;;
7939;SDS011;4015;48.888;9.226;2023-08-31T01:54:55;5.13;;;3.73;;
7939;SDS011;4015;48.888;9.226;2023-08-31T01:57:21;4.80;;;3.63;;
7939;SDS011;4015;48.888;9.226;2023-08-31T01:59:46;3.90;;;3.60;;
7939;SDS011;4015;48.888;9.226;2023-08-31T02:02:12;8.17;;;3.37;;
7939;SDS011;4015;48.888;9.226;2023-08-31T02:04:37;5.93;;;4.07;;
7939;SDS011;4015;48.888;9.226;2023-08-31T02:07:02;5.80;;;3.97;;
7939;SDS011;4015;48.888;9.226;2023-08-31T02:09:28;4.17;;;3.77;;
7939;SDS011;4015;48.888;9.226;2023-08-31T02:11:53;5.90;;;3.60;;
7939;SDS011;4015;48.888;9.226;2023-08-31T02:14:18;4.43;;;3.30;;
7939;SDS011;4015;48.888;9.226;2023-08-31T02:16:44;5.50;;;3.70;;
7939;SDS011;4015;48.888;9.226;2023-08-31T02:19:09;4.97;;;3.30;;
7939;SDS011;4015;48.888;9.226;2023-08-31T02:21:34;5.83;;;3.87;;
7939;SDS011;4015;48.888;9.226;2023-08-31T02:24:00;4.90;;;3.70;;
7939;SDS011;4015;48.888;9.226;2023-08-31T02:26:25;5.03;;;3.57;;
7939;SDS011;4015;48.888;9.226;2023-08-31T02:28:50;5.67;;;4.00;;
7939;SDS011;4015;48.888;9.226;2023-08-31T02:31:16;6.60;;;3.63;;
7939;SDS011;4015;48.888;9.226;2023-08-31T02:33:42;7.93;;;3.83;;
7939;SDS011;4015;48.888;9.226;2023-08-31T02:36:09;3.33;;;2.97;;
7939;SDS011;4015;48.888;9.226;2023-08-31T02:38:34;5.80;;;3.53;;
7939;SDS011;4015;48.888;9.226;2023-08-31T02:41:00;4.97;;;3.27;;
7939;SDS011;4015;48.888;9.226;2023-08-31T02:43:25;6.90;;;3.40;;
7939;SDS011;4015;48.888;9.226;2023-08-31T02:45:58;5.27;;;3.90;;
7939;SDS011;4015;48.888;9.226;2023-08-31T02:48:24;3.73;;;2.77;;
7939;SDS011;4015;48.888;9.226;2023-08-31T02:50:50;8.03;;;3.70;;
7939;SDS011;4015;48.888;9.226;2023-08-31T02:53:15;3.50;;;3.20;;
7939;SDS011;4015;48.888;9.226;2023-08-31T02:55:41;3.23;;;2.90;;
7939;SDS011;4015;48.888;9.226;2023-08-31T02:58:07;5.40;;;3.00;;
7939;SDS011;4015;48.888;9.226;2023-08-31T03:00:32;6.77;;;3.27;;
7939;SDS011;4015;48.888;9.226;2023-08-31T03:02:58;3.83;;;3.40;;
7939;SDS011;4015;48.888;9.226;2023-08-31T03:05:23;6.17;;;3.47;;
7939;SDS011;4015;48.888;9.226;2023-08-31T03:07:49;4.20;;;3.50;;
7939;SDS011;4015;48.888;9.226;2023-08-31T03:10:14;4.87;;;2.90;;
7939;SDS011;4015;48.888;9.226;2023-08-31T03:12:39;3.53;;;3.23;;
7939;SDS011;4015;48.888;9.226;2023-08-31T03:15:05;5.40;;;3.10;;
7939;SDS011;4015;48.888;9.226;2023-08-31T03:17:31;5.27;;;3.70;;
7939;SDS011;4015;48.888;9.226;2023-08-31T03:19:56;3.37;;;3.07;;
7939;SDS011;4015;48.888;9.226;2023-08-31T03:22:22;4.00;;;3.27;;
7939;SDS011;4015;48.888;9.226;2023-08-31T03:24:47;6.53;;;3.77;;
7939;SDS011;4015;48.888;9.226;2023-08-31T03:27:13;4.93;;;3.13;;
7939;SDS011;4015;48.888;9.226;2023-08-31T03:29:38;3.93;;;2.90;;
7939;SDS011;4015;48.888;9.226;2023-08-31T03:32:05;5.13;;;3.47;;
7939;SDS011;4015;48.888;9.226;2023-08-31T03:34:30;5.00;;;3.40;;
7939;SDS011;4015;48.888;9.226;2023-08-31T03:36:56;3.40;;;3.10;;
7939;SDS011;4015;48.888;9.226;2023-08-31T03:39:23;4.33;;;3.60;;
7939;SDS011;4015;48.888;9.226;2023-08-31T03:41:49;5.93;;;3.13;;
7939;SDS011;4015;48.888;9.226;2023-08-31T03:44:14;6.03;;;3.17;;
7939;SDS011;4015;48.888;9.226;2023-08-31T03:46:39;5.03;;;3.00;;
7939;SDS011;4015;48.888;9.226;2023-08-31T03:49:05;5.67;;;3.10;;
7939;SDS011;4015;48.888;9.226;2023-08-31T03:51:30;6.27;;;3.00;;
7939;SDS011;4015;48.888;9.226;2023-08-31T03:53:55;5.70;;;2.50;;
7939;SDS011;4015;48.888;9.226;2023-08-31T03:56:21;3.80;;;3.03;;
7939;SDS011;4015;48.888;9.226;2023-08-31T03:58:47;3.80;;;2.67;;
7939;SDS011;4015;48.888;9.226;2023-08-31T04:01:12;4.40;;;2.93;;
7939;SDS011;4015;48.888;9.226;2023-08-31T04:03:39;5.13;;;3.03;;
7939;SDS011;4015;48.888;9.226;2023-08-31T04:06:04;4.43;;;2.67;;
7939;SDS011;4015;48.888;9.226;2023-08-31T04:08:30;5.50;;;3.20;;
7939;SDS011;4015;48.888;9.226;2023-08-31T04:10:56;4.40;;;3.13;;
7939;SDS011;4015;48.888;9.226;2023-08-31T04:13:21;8.10;;;3.17;;
7939;SDS011;4015;48.888;9.226;2023-08-31T04:15:47;5.00;;;2.90;;
7939;SDS011;4015;48.888;9.226;2023-08-31T04:18:12;7.63;;;3.10;;
7939;SDS011;4015;48.888;9.226;2023-08-31T04:20:37;3.10;;;2.70;;
7939;SDS011;4015;48.888;9.226;2023-08-31T04:23:03;5.47;;;2.97;;
7939;SDS011;4015;48.888;9.226;2023-08-31T04:25:28;10.53;;;3.10;;
7939;SDS011;4015;48.888;9.226;2023-08-31T04:27:56;4.47;;;3.33;;
7939;SDS011;4015;48.888;9.226;2023-08-31T04:30:22;4.37;;;3.10;;
7939;SDS011;4015;48.888;9.226;2023-08-31T04:32:47;5.87;;;2.83;;
7939;SDS011;4015;48.888;9.226;2023-08-31T04:35:13;7.03;;;4.00;;
7939;SDS011;4015;48.888;9.226;2023-08-31T04:37:38;3.90;;;2.87;;
7939;SDS011;4015;48.888;9.226;2023-08-31T04:40:04;4.70;;;3.00;;
7939;SDS011;4015;48.888;9.226;2023-08-31T04:42:30;4.67;;;3.77;;
7939;SDS011;4015;48.888;9.226;2023-08-31T04:44:55;3.30;;;3.00;;
7939;SDS011;4015;48.888;9.226;2023-08-31T04:47:20;3.77;;;3.27;;
7939;SDS011;4015;48.888;9.226;2023-08-31T04:49:46;3.67;;;3.37;;
7939;SDS011;4015;48.888;9.226;2023-08-31T04:52:11;4.97;;;3.30;;
7939;SDS011;4015;48.888;9.226;2023-08-31T04:54:37;4.27;;;3.67;;
7939;SDS011;4015;48.888;9.226;2023-08-31T04:57:02;4.03;;;3.10;;
7939;SDS011;4015;48.888;9.226;2023-08-31T04:59:28;3.50;;;3.20;;
7939;SDS011;4015;48.888;9.226;2023-08-31T05:01:53;4.83;;;3.40;;
7939;SDS011;4015;48.888;9.226;2023-08-31T05:04:19;4.37;;;3.27;;
7939;SDS011;4015;48.888;9.226;2023-08-31T05:06:44;6.50;;;3.83;;
7939;SDS011;4015;48.888;9.226;2023-08-31T05:09:09;4.60;;;3.77;;
7939;SDS011;4015;48.888;9.226;2023-08-31T05:11:35;6.30;;;3.43;;
7939;SDS011;4015;48.888;9.226;2023-08-31T05:14:00;5.73;;;3.33;;
7939;SDS011;4015;48.888;9.226;2023-08-31T05:16:25;3.83;;;3.50;;
7939;SDS011;4015;48.888;9.226;2023-08-31T05:18:51;9.30;;;3.70;;
7939;SDS011;4015;48.888;9.226;2023-08-31T05:21:16;8.00;;;3.70;;
7939;SDS011;4015;48.888;9.226;2023-08-31T05:23:41;3.60;;;3.30;;
7939;SDS011;4015;48.888;9.226;2023-08-31T05:26:07;5.13;;;3.20;;
7939;SDS011;4015;48.888;9.226;2023-08-31T05:28:33;5.27;;;3.40;;
7939;SDS011;4015;48.888;9.226;2023-08-31T05:30:59;5.07;;;3.10;;
7939;SDS011;4015;48.888;9.226;2023-08-31T05:33:25;4.87;;;2.90;;
7939;SDS011;4015;48.888;9.226;2023-08-31T05:35:52;5.90;;;3.30;;
7939;SDS011;4015;48.888;9.226;2023-08-31T05:38:18;3.83;;;3.27;;
7939;SDS011;4015;48.888;9.226;2023-08-31T05:40:43;4.47;;;3.20;;
7939;SDS011;4015;48.888;9.226;2023-08-31T05:43:11;3.93;;;3.10;;
7939;SDS011;4015;48.888;9.226;2023-08-31T05:45:39;3.50;;;3.20;;
7939;SDS011;4015;48.888;9.226;2023-08-31T05:48:05;8.47;;;2.97;;
7939;SDS011;4015;48.888;9.226;2023-08-31T05:50:30;5.53;;;3.10;;
7939;SDS011;4015;48.888;9.226;2023-08-31T05:52:56;4.60;;;3.43;;
7939;SDS011;4015;48.888;9.226;2023-08-31T05:55:22;4.63;;;3.40;;
7939;SDS011;4015;48.888;9.226;2023-08-31T05:57:47;4.43;;;3.20;;
7939;SDS011;4015;48.888;9.226;2023-08-31T06:00:13;4.97;;;3.73;;
7939;SDS011;4015;48.888;9.226;2023-08-31T06:02:38;5.37;;;3.23;;
7939;SDS011;4015;48.888;9.226;2023-08-31T06:05:04;4.10;;;3.43;;
7939;SDS011;4015;48.888;9.226;2023-08-31T06:07:30;4.73;;;2.77;;
7939;SDS011;4015;48.888;9.226;2023-08-31T06:09:56;7.23;;;3.80;;
7939;SDS011;4015;48.888;9.226;2023-08-31T06:12:22;4.43;;;3.00;;
7939;SDS011;4015;48.888;9.226;2023-08-31T06:14:47;4.60;;;3.43;;
7939;SDS011;4015;48.888;9.226;2023-08-31T06:17:13;5.97;;;3.03;;
7939;SDS011;4015;48.888;9.226;2023-08-31T06:19:38;4.80;;;3.43;;
7939;SDS011;4015;48.888;9.226;2023-08-31T06:22:04;6.27;;;3.77;;
7939;SDS011;4015;48.888;9.226;2023-08-31T06:24:29;4.83;;;2.90;;
7939;SDS011;4015;48.888;9.226;2023-08-31T06:26:55;5.40;;;3.23;;
7939;SDS011;4015;48.888;9.226;2023-08-31T06:29:21;6.13;;;2.70;;
7939;SDS011;4015;48.888;9.226;2023-08-31T06:31:47;4.77;;;2.70;;
7939;SDS011;4015;48.888;9.226;2023-08-31T06:34:12;3.13;;;2.70;;
7939;SDS011;4015;48.888;9.226;2023-08-31T06:36:37;6.33;;;2.83;;
7939;SDS011;4015;48.888;9.226;2023-08-31T06:39:05;4.67;;;3.37;;
7939;SDS011;4015;48.888;9.226;2023-08-31T06:41:31;4.65;;;3.42;;
7939;SDS011;4015;48.888;9.226;2023-08-31T06:43:57;3.97;;;2.47;;
7939;SDS011;4015;48.888;9.226;2023-08-31T06:46:22;7.00;;;2.78;;
7939;SDS011;4015;48.888;9.226;2023-08-31T06:48:47;4.35;;;2.40;;
7939;SDS011;4015;48.888;9.226;2023-08-31T06:51:14;3.90;;;2.78;;
7939;SDS011;4015;48.888;9.226;2023-08-31T06:53:40;2.58;;;1.83;;
7939;SDS011;4015;48.888;9.226;2023-08-31T06:56:07;5.95;;;2.38;;
7939;SDS011;4015;48.888;9.226;2023-08-31T06:58:32;5.10;;;2.28;;
7939;SDS011;4015;48.888;9.226;2023-08-31T07:00:57;2.50;;;2.17;;
7939;SDS011;4015;48.888;9.226;2023-08-31T07:03:23;7.35;;;2.70;;
7939;SDS011;4015;48.888;9.226;2023-08-31T07:05:48;5.75;;;2.40;;
7939;SDS011;4015;48.888;9.226;2023-08-31T07:08:14;4.30;;;2.40;;
7939;SDS011;4015;48.888;9.226;2023-08-31T07:10:39;5.15;;;2.50;;
7939;SDS011;4015;48.888;9.226;2023-08-31T07:13:04;3.92;;;2.63;;
7939;SDS011;4015;48.888;9.226;2023-08-31T07:15:30;4.03;;;2.20;;
7939;SDS011;4015;48.888;9.226;2023-08-31T07:17:55;3.78;;;2.40;;
7939;SDS011;4015;48.888;9.226;2023-08-31T07:20:20;3.10;;;2.17;;
7939;SDS011;4015;48.888;9.226;2023-08-31T07:22:46;3.05;;;2.35;;
7939;SDS011;4015;48.888;9.226;2023-08-31T07:25:11;4.18;;;2.15;;
7939;SDS011;4015;48.888;9.226;2023-08-31T07:27:37;3.65;;;2.28;;
7939;SDS011;4015;48.888;9.226;2023-08-31T07:30:02;3.50;;;2.97;;
7939;SDS011;4015;48.888;9.226;2023-08-31T07:32:29;4.57;;;2.30;;
7939;SDS011;4015;48.888;9.226;2023-08-31T07:34:54;3.97;;;2.70;;
7939;SDS011;4015;48.888;9.226;2023-08-31T07:37:20;5.60;;;2.10;;
7939;SDS011;4015;48.888;9.226;2023-08-31T07:39:45;3.53;;;2.00;;
7939;SDS011;4015;48.888;9.226;2023-08-31T07:42:11;2.70;;;1.80;;
7939;SDS011;4015;48.888;9.226;2023-08-31T07:44:36;3.70;;;1.75;;
7939;SDS011;4015;48.888;9.226;2023-08-31T07:47:01;3.90;;;2.10;;
7939;SDS011;4015;48.888;9.226;2023-08-31T07:49:27;3.70;;;1.90;;
7939;SDS011;4015;48.888;9.226;2023-08-31T07:51:52;3.10;;;1.88;;
7939;SDS011;4015;48.888;9.226;2023-08-31T07:54:24;4.38;;;2.53;;
7939;SDS011;4015;48.888;9.226;2023-08-31T07:56:50;5.60;;;2.17;;
7939;SDS011;4015;48.888;9.226;2023-08-31T07:59:16;3.58;;;2.08;;
7939;SDS011;4015;48.888;9.226;2023-08-31T08:01:42;4.78;;;2.10;;
7939;SDS011;4015;48.888;9.226;2023-08-31T08:04:07;9.43;;;2.25;;
7939;SDS011;4015;48.888;9.226;2023-08-31T08:06:32;3.63;;;1.90;;
7939;SDS011;4015;48.888;9.226;2023-08-31T08:08:58;2.83;;;1.98;;
7939;SDS011;4015;48.888;9.226;2023-08-31T08:11:23;3.80;;;2.05;;
7939;SDS011;4015;48.888;9.226;2023-08-31T08:13:48;4.50;;;2.13;;
7939;SDS011;4015;48.888;9.226;2023-08-31T08:16:14;3.35;;;1.67;;
7939;SDS011;4015;48.888;9.226;2023-08-31T08:18:39;3.92;;;1.63;;
7939;SDS011;4015;48.888;9.226;2023-08-31T08:21:05;3.45;;;1.95;;
7939;SDS011;4015;48.888;9.226;2023-08-31T08:23:30;3.33;;;1.98;;
7939;SDS011;4015;48.888;9.226;2023-08-31T08:25:55;5.35;;;1.90;;
7939;SDS011;4015;48.888;9.226;2023-08-31T08:28:21;5.63;;;1.92;;
7939;SDS011;4015;48.888;9.226;2023-08-31T08:30:46;4.68;;;2.28;;
7939;SDS011;4015;48.888;9.226;2023-08-31T08:33:11;3.25;;;2.03;;
7939;SDS011;4015;48.888;9.226;2023-08-31T08:35:37;4.22;;;2.38;;
7939;SDS011;4015;48.888;9.226;2023-08-31T08:38:03;5.47;;;2.05;;
7939;SDS011;4015;48.888;9.226;2023-08-31T08:40:30;3.65;;;2.20;;
7939;SDS011;4015;48.888;9.226;2023-08-31T08:42:56;4.32;;;2.10;;
7939;SDS011;4015;48.888;9.226;2023-08-31T08:45:25;5.00;;;2.20;;
7939;SDS011;4015;48.888;9.226;2023-08-31T08:47:55;4.40;;;2.38;;
7939;SDS011;4015;48.888;9.226;2023-08-31T08:50:22;4.30;;;1.90;;
7939;SDS011;4015;48.888;9.226;2023-08-31T08:52:49;4.38;;;1.80;;
7939;SDS011;4015;48.888;9.226;2023-08-31T08:55:15;5.30;;;2.15;;
7939;SDS011;4015;48.888;9.226;2023-08-31T08:57:41;2.28;;;1.60;;
7939;SDS011;4015;48.888;9.226;2023-08-31T09:00:06;4.47;;;2.40;;
7939;SDS011;4015;48.888;9.226;2023-08-31T09:02:32;8.43;;;2.13;;
7939;SDS011;4015;48.888;9.226;2023-08-31T09:04:58;3.97;;;2.15;;
7939;SDS011;4015;48.888;9.226;2023-08-31T09:07:24;4.25;;;1.92;;
7939;SDS011;4015;48.888;9.226;2023-08-31T09:09:50;2.58;;;1.77;;
7939;SDS011;4015;48.888;9.226;2023-08-31T09:12:17;3.72;;;1.92;;
7939;SDS011;4015;48.888;9.226;2023-08-31T09:14:42;4.50;;;2.03;;
7939;SDS011;4015;48.888;9.226;2023-08-31T09:17:08;3.17;;;1.63;;
7939;SDS011;4015;48.888;9.226;2023-08-31T09:19:33;2.90;;;1.55;;
7939;SDS011;4015;48.888;9.226;2023-08-31T09:21:59;2.78;;;1.77;;
7939;SDS011;4015;48.888;9.226;2023-08-31T09:24:25;3.90;;;2.30;;
7939;SDS011;4015;48.888;9.226;2023-08-31T09:26:55;4.28;;;2.47;;
7939;SDS011;4015;48.888;9.226;2023-08-31T09:29:22;6.35;;;1.95;;
7939;SDS011;4015;48.888;9.226;2023-08-31T09:31:47;4.07;;;2.13;;
7939;SDS011;4015;48.888;9.226;2023-08-31T09:34:17;3.63;;;2.28;;
7939;SDS011;4015;48.888;9.226;2023-08-31T09:36:43;3.05;;;2.00;;
7939;SDS011;4015;48.888;9.226;2023-08-31T09:39:09;8.18;;;2.13;;
7939;SDS011;4015;48.888;9.226;2023-08-31T09:41:36;3.08;;;2.13;;
7939;SDS011;4015;48.888;9.226;2023-08-31T09:44:18;2.83;;;2.03;;
7939;SDS011;4015;48.888;9.226;2023-08-31T09:46:44;3.05;;;1.80;;
7939;SDS011;4015;48.888;9.226;2023-08-31T09:49:11;3.08;;;1.88;;
7939;SDS011;4015;48.888;9.226;2023-08-31T09:51:39;8.02;;;2.08;;
7939;SDS011;4015;48.888;9.226;2023-08-31T09:54:08;4.63;;;1.85;;
7939;SDS011;4015;48.888;9.226;2023-08-31T09:56:36;3.92;;;1.90;;
7939;SDS011;4015;48.888;9.226;2023-08-31T09:59:02;3.90;;;2.03;;
7939;SDS011;4015;48.888;9.226;2023-08-31T10:01:28;3.03;;;1.70;;
7939;SDS011;4015;48.888;9.226;2023-08-31T10:03:53;3.80;;;2.08;;
7939;SDS011;4015;48.888;9.226;2023-08-31T10:06:19;3.63;;;2.03;;
7939;SDS011;4015;48.888;9.226;2023-08-31T10:08:47;4.47;;;2.50;;
7939;SDS011;4015;48.888;9.226;2023-08-31T10:11:13;2.92;;;1.50;;
7939;SDS011;4015;48.888;9.226;2023-08-31T10:13:40;3.20;;;2.25;;
7939;SDS011;4015;48.888;9.226;2023-08-31T10:16:07;2.60;;;1.85;;
7939;SDS011;4015;48.888;9.226;2023-08-31T10:18:36;3.40;;;1.63;;
7939;SDS011;4015;48.888;9.226;2023-08-31T10:21:02;3.08;;;1.90;;
7939;SDS011;4015;48.888;9.226;2023-08-31T10:23:28;4.22;;;1.90;;
7939;SDS011;4015;48.888;9.226;2023-08-31T10:28:23;4.72;;;1.77;;
7939;SDS011;4015;48.888;9.226;2023-08-31T10:31:02;5.75;;;1.67;;
7939;SDS011;4015;48.888;9.226;2023-08-31T10:33:42;3.30;;;1.70;;
7939;SDS011;4015;48.888;9.226;2023-08-31T10:36:11;2.78;;;1.73;;
7939;SDS011;4015;48.888;9.226;2023-08-31T10:38:38;4.15;;;2.28;;
7939;SDS011;4015;48.888;9.226;2023-08-31T10:43:45;3.58;;;1.80;;
7939;SDS011;4015;48.888;9.226;2023-08-31T10:46:32;3.10;;;1.77;;
7939;SDS011;4015;48.888;9.226;2023-08-31T10:51:35;4.93;;;2.08;;
7939;SDS011;4015;48.888;9.226;2023-08-31T11:02:07;4.72;;;2.20;;
7939;SDS011;4015;48.888;9.226;2023-08-31T11:04:51;6.22;;;2.25;;
7939;SDS011;4015;48.888;9.226;2023-08-31T11:07:25;6.68;;;2.75;;
7939;SDS011;4015;48.888;9.226;2023-08-31T11:09:52;3.55;;;2.03;;
7939;SDS011;4015;48.888;9.226;2023-08-31T11:12:21;4.80;;;2.33;;
7939;SDS011;4015;48.888;9.226;2023-08-31T11:14:47;3.67;;;1.80;;
7939;SDS011;4015;48.888;9.226;2023-08-31T11:17:13;3.33;;;1.90;;
7939;SDS011;4015;48.888;9.226;2023-08-31T11:19:38;3.78;;;1.90;;
7939;SDS011;4015;48.888;9.226;2023-08-31T11:22:04;3.10;;;2.10;;
7939;SDS011;4015;48.888;9.226;2023-08-31T11:24:31;4.32;;;1.65;;
7939;SDS011;4015;48.888;9.226;2023-08-31T11:26:57;3.35;;;1.88;;
7939;SDS011;4015;48.888;9.226;2023-08-31T11:29:23;7.05;;;2.67;;
7939;SDS011;4015;48.888;9.226;2023-08-31T11:31:48;7.82;;;2.47;;
7939;SDS011;4015;48.888;9.226;2023-08-31T11:34:14;2.85;;;1.95;;
7939;SDS011;4015;48.888;9.226;2023-08-31T11:36:41;3.10;;;2.08;;
7939;SDS011;4015;48.888;9.226;2023-08-31T11:39:11;3.60;;;2.30;;
7939;SDS011;4015;48.888;9.226;2023-08-31T11:41:37;6.78;;;2.33;;
7939;SDS011;4015;48.888;9.226;2023-08-31T11:44:06;5.88;;;3.05;;
7939;SDS011;4015;48.888;9.226;2023-08-31T11:46:33;6.78;;;2.80;;
7939;SDS011;4015;48.888;9.226;2023-08-31T11:48:59;3.72;;;1.98;;
7939;SDS011;4015;48.888;9.226;2023-08-31T11:51:25;3.83;;;2.30;;
7939;SDS011;4015;48.888;9.226;2023-08-31T11:53:54;3.03;;;2.05;;
7939;SDS011;4015;48.888;9.226;2023-08-31T11:56:21;8.93;;;2.40;;
7939;SDS011;4015;48.888;9.226;2023-08-31T11:58:46;9.55;;;2.10;;
7939;SDS011;4015;48.888;9.226;2023-08-31T12:01:21;4.32;;;2.13;;
7939;SDS011;4015;48.888;9.226;2023-08-31T12:03:48;4.30;;;1.85;;
7939;SDS011;4015;48.888;9.226;2023-08-31T12:06:16;4.65;;;2.17;;
7939;SDS011;4015;48.888;9.226;2023-08-31T12:08:45;4.50;;;2.33;;
7939;SDS011;4015;48.888;9.226;2023-08-31T12:11:10;4.00;;;2.10;;
7939;SDS011;4015;48.888;9.226;2023-08-31T12:13:36;4.00;;;2.05;;
7939;SDS011;4015;48.888;9.226;2023-08-31T12:16:01;3.38;;;2.03;;
7939;SDS011;4015;48.888;9.226;2023-08-31T12:18:29;4.57;;;1.70;;
7939;SDS011;4015;48.888;9.226;2023-08-31T12:20:56;4.55;;;1.88;;
7939;SDS011;4015;48.888;9.226;2023-08-31T12:23:22;4.97;;;2.33;;
7939;SDS011;4015;48.888;9.226;2023-08-31T12:25:51;5.25;;;2.58;;
7939;SDS011;4015;48.888;9.226;2023-08-31T12:28:19;4.38;;;2.35;;
7939;SDS011;4015;48.888;9.226;2023-08-31T12:30:49;5.28;;;2.60;;
7939;SDS011;4015;48.888;9.226;2023-08-31T12:33:19;4.88;;;2.38;;
7939;SDS011;4015;48.888;9.226;2023-08-31T12:35:45;5.28;;;2.08;;
7939;SDS011;4015;48.888;9.226;2023-08-31T12:38:12;3.58;;;2.35;;
7939;SDS011;4015;48.888;9.226;2023-08-31T12:40:38;4.10;;;1.92;;
7939;SDS011;4015;48.888;9.226;2023-08-31T12:43:04;5.45;;;2.38;;
7939;SDS011;4015;48.888;9.226;2023-08-31T12:45:30;3.85;;;2.22;;
7939;SDS011;4015;48.888;9.226;2023-08-31T12:47:55;6.03;;;2.20;;
7939;SDS011;4015;48.888;9.226;2023-08-31T12:50:20;4.82;;;2.20;;
7939;SDS011;4015;48.888;9.226;2023-08-31T12:52:46;6.13;;;2.10;;
7939;SDS011;4015;48.888;9.226;2023-08-31T12:55:14;2.90;;;1.50;;
7939;SDS011;4015;48.888;9.226;2023-08-31T12:57:41;3.45;;;2.35;;
7939;SDS011;4015;48.888;9.226;2023-08-31T13:00:07;2.55;;;1.90;;
7939;SDS011;4015;48.888;9.226;2023-08-31T13:02:37;3.78;;;2.30;;
7939;SDS011;4015;48.888;9.226;2023-08-31T13:05:06;4.43;;;2.35;;
7939;SDS011;4015;48.888;9.226;2023-08-31T13:07:33;3.83;;;2.10;;
7939;SDS011;4015;48.888;9.226;2023-08-31T13:10:00;6.03;;;2.70;;
7939;SDS011;4015;48.888;9.226;2023-08-31T13:12:25;3.53;;;2.13;;
7939;SDS011;4015;48.888;9.226;2023-08-31T13:14:51;5.35;;;2.20;;
7939;SDS011;4015;48.888;9.226;2023-08-31T13:17:16;11.82;;;2.70;;
7939;SDS011;4015;48.888;9.226;2023-08-31T13:19:41;4.13;;;1.95;;
7939;SDS011;4015;48.888;9.226;2023-08-31T13:22:07;3.97;;;2.03;;
7939;SDS011;4015;48.888;9.226;2023-08-31T13:24:32;3.65;;;1.85;;
7939;SDS011;4015;48.888;9.226;2023-08-31T13:26:58;4.38;;;2.28;;
7939;SDS011;4015;48.888;9.226;2023-08-31T13:29:23;6.85;;;2.20;;
7939;SDS011;4015;48.888;9.226;2023-08-31T13:31:48;8.00;;;2.70;;
7939;SDS011;4015;48.888;9.226;2023-08-31T13:34:14;2.50;;;1.70;;
7939;SDS011;4015;48.888;9.226;2023-08-31T13:36:40;3.10;;;1.83;;
7939;SDS011;4015;48.888;9.226;2023-08-31T13:39:06;5.47;;;1.85;;
7939;SDS011;4015;48.888;9.226;2023-08-31T13:41:32;4.88;;;2.25;;
7939;SDS011;4015;48.888;9.226;2023-08-31T13:43:58;3.50;;;1.85;;
7939;SDS011;4015;48.888;9.226;2023-08-31T13:46:23;4.68;;;2.28;;
7939;SDS011;4015;48.888;9.226;2023-08-31T13:48:48;4.53;;;2.45;;
7939;SDS011;4015;48.888;9.226;2023-08-31T13:51:14;4.35;;;1.98;;
7939;SDS011;4015;48.888;9.226;2023-08-31T13:53:39;3.58;;;2.03;;
7939;SDS011;4015;48.888;9.226;2023-08-31T13:56:04;5.45;;;2.17;;
7939;SDS011;4015;48.888;9.226;2023-08-31T13:58:30;3.72;;;1.98;;
7939;SDS011;4015;48.888;9.226;2023-08-31T14:00:55;3.95;;;2.00;;
7939;SDS011;4015;48.888;9.226;2023-08-31T14:03:20;4.57;;;1.83;;
7939;SDS011;4015;48.888;9.226;2023-08-31T14:05:49;5.30;;;1.83;;
7939;SDS011;4015;48.888;9.226;2023-08-31T14:08:15;4.90;;;2.42;;
7939;SDS011;4015;48.888;9.226;2023-08-31T14:10:40;5.95;;;2.55;;
7939;SDS011;4015;48.888;9.226;2023-08-31T14:13:06;5.38;;;2.13;;
7939;SDS011;4015;48.888;9.226;2023-08-31T14:15:32;4.35;;;2.35;;
7939;SDS011;4015;48.888;9.226;2023-08-31T14:17:57;4.95;;;2.55;;
7939;SDS011;4015;48.888;9.226;2023-08-31T14:20:23;5.13;;;2.40;;
7939;SDS011;4015;48.888;9.226;2023-08-31T14:22:48;4.57;;;2.22;;
7939;SDS011;4015;48.888;9.226;2023-08-31T14:25:14;2.83;;;2.10;;
7939;SDS011;4015;48.888;9.226;2023-08-31T14:27:39;4.22;;;1.80;;
7939;SDS011;4015;48.888;9.226;2023-08-31T14:30:05;6.53;;;2.40;;
7939;SDS011;4015;48.888;9.226;2023-08-31T14:32:31;6.03;;;2.22;;
7939;SDS011;4015;48.888;9.226;2023-08-31T14:34:57;4.22;;;2.30;;
7939;SDS011;4015;48.888;9.226;2023-08-31T14:37:22;5.07;;;2.55;;
7939;SDS011;4015;48.888;9.226;2023-08-31T14:39:47;4.43;;;2.42;;
7939;SDS011;4015;48.888;9.226;2023-08-31T14:42:13;8.70;;;2.83;;
7939;SDS011;4015;48.888;9.226;2023-08-31T14:44:40;7.80;;;4.97;;
7939;SDS011;4015;48.888;9.226;2023-08-31T14:47:05;8.52;;;4.28;;
7939;SDS011;4015;48.888;9.226;2023-08-31T14:49:31;7.97;;;4.65;;
7939;SDS011;4015;48.888;9.226;2023-08-31T14:51:56;6.68;;;2.90;;
7939;SDS011;4015;48.888;9.226;2023-08-31T14:54:21;3.45;;;2.20;;
7939;SDS011;4015;48.888;9.226;2023-08-31T14:56:47;3.70;;;2.55;;
7939;SDS011;4015;48.888;9.226;2023-08-31T14:59:13;6.85;;;2.63;;
7939;SDS011;4015;48.888;9.226;2023-08-31T15:01:38;4.55;;;2.65;;
7939;SDS011;4015;48.888;9.226;2023-08-31T15:04:04;4.70;;;2.30;;
7939;SDS011;4015;48.888;9.226;2023-08-31T15:06:29;4.25;;;2.15;;
7939;SDS011;4015;48.888;9.226;2023-08-31T15:08:57;4.53;;;2.95;;
7939;SDS011;4015;48.888;9.226;2023-08-31T15:11:25;8.98;;;2.53;;
7939;SDS011;4015;48.888;9.226;2023-08-31T15:13:51;5.00;;;2.15;;
7939;SDS011;4015;48.888;9.226;2023-08-31T15:16:17;4.68;;;2.38;;
7939;SDS011;4015;48.888;9.226;2023-08-31T15:18:42;4.07;;;1.95;;
7939;SDS011;4015;48.888;9.226;2023-08-31T15:21:09;3.30;;;2.35;;
7939;SDS011;4015;48.888;9.226;2023-08-31T15:23:35;6.65;;;2.10;;
7939;SDS011;4015;48.888;9.226;2023-08-31T15:26:01;5.28;;;2.45;;
7939;SDS011;4015;48.888;9.226;2023-08-31T15:28:27;3.33;;;2.05;;
7939;SDS011;4015;48.888;9.226;2023-08-31T15:30:53;4.15;;;2.03;;
7939;SDS011;4015;48.888;9.226;2023-08-31T15:33:18;5.88;;;2.17;;